sensor_id;sensor_type;location;lat;lon;timestamp;temperature;humidity
20740;DHT22;10530;49.968;19.844;2023-03-01T00:04:56;-3.90;99.90
20740;DHT22;10530;49.968;19.844;2023-03-01T00:09:58;-4.00;99.90
20740;DHT22;10530;49.968;19.844;2023-03-01T00:15:01;-4.20;99.90
20740;DHT22;10530;49.968;19.844;2023-03-01T00:20:04;-4.20;99.90
20740;DHT22;10530;49.968;19.844;2023-03-01T00:25:12;-4.20;99.90
20740;DHT22;10530;49.968;19.844;2023-03-01T00:30:15;-4.10;99.90
20740;DHT22;10530;49.968;19.844;2023-03-01T00:35:17;-4.30;99.90
20740;DHT22;10530;49.968;19.844;2023-03-01T00:40:20;-4.20;99.90
20740;DHT22;10530;49.968;19.844;2023-03-01T00:45:23;-4.20;99.90
20740;DHT22;10530;49.968;19.844;2023-03-01T00:50:26;-4.40;99.90
20740;DHT22;10530;49.968;19.844;2023-03-01T00:55:29;-4.30;99.90
20740;DHT22;10530;49.968;19.844;2023-03-01T01:00:32;-4.40;99.90
20740;DHT22;10530;49.968;19.844;2023-03-01T01:05:34;-4.50;99.90
20740;DHT22;10530;49.968;19.844;2023-03-01T01:10:37;-4.40;99.90
20740;DHT22;10530;49.968;19.844;2023-03-01T01:15:40;-4.50;99.90
20740;DHT22;10530;49.968;19.844;2023-03-01T01:20:43;-4.50;99.90
20740;DHT22;10530;49.968;19.844;2023-03-01T01:25:45;-4.70;99.90
20740;DHT22;10530;49.968;19.844;2023-03-01T01:30:48;-4.70;99.90
20740;DHT22;10530;49.968;19.844;2023-03-01T01:35:51;-4.60;99.90
20740;DHT22;10530;49.968;19.844;2023-03-01T01:40:54;-4.60;99.90
20740;DHT22;10530;49.968;19.844;2023-03-01T01:46:01;-4.70;99.90
20740;DHT22;10530;49.968;19.844;2023-03-01T01:51:04;-4.70;99.90
20740;DHT22;10530;49.968;19.844;2023-03-01T01:56:08;-4.70;99.90
20740;DHT22;10530;49.968;19.844;2023-03-01T02:01:14;-4.60;99.90
20740;DHT22;10530;49.968;19.844;2023-03-01T02:06:27;-4.70;99.90
20740;DHT22;10530;49.968;19.844;2023-03-01T02:11:32;-4.60;99.90
20740;DHT22;10530;49.968;19.844;2023-03-01T02:16:36;-4.40;99.90
20740;DHT22;10530;49.968;19.844;2023-03-01T02:21:44;-4.60;99.90
20740;DHT22;10530;49.968;19.844;2023-03-01T02:26:52;-4.70;99.90
20740;DHT22;10530;49.968;19.844;2023-03-01T02:31:58;-4.90;99.90
20740;DHT22;10530;49.968;19.844;2023-03-01T02:37:07;-5.00;99.90
20740;DHT22;10530;49.968;19.844;2023-03-01T02:42:14;-5.20;99.90
20740;DHT22;10530;49.968;19.844;2023-03-01T02:47:19;-5.10;99.90
20740;DHT22;10530;49.968;19.844;2023-03-01T02:52:33;-5.00;99.90
20740;DHT22;10530;49.968;19.844;2023-03-01T02:57:43;-5.00;99.90
20740;DHT22;10530;49.968;19.844;2023-03-01T03:02:48;-5.00;99.90
20740;DHT22;10530;49.968;19.844;2023-03-01T03:07:59;-5.00;99.90
20740;DHT22;10530;49.968;19.844;2023-03-01T03:13:11;-5.00;99.90
20740;DHT22;10530;49.968;19.844;2023-03-01T03:18:16;-4.80;99.90
20740;DHT22;10530;49.968;19.844;2023-03-01T03:23:23;-4.90;99.90
20740;DHT22;10530;49.968;19.844;2023-03-01T03:28:25;-5.20;99.90
20740;DHT22;10530;49.968;19.844;2023-03-01T03:33:28;-5.10;99.90
20740;DHT22;10530;49.968;19.844;2023-03-01T03:38:31;-5.00;99.90
20740;DHT22;10530;49.968;19.844;2023-03-01T03:43:36;-5.00;99.90
20740;DHT22;10530;49.968;19.844;2023-03-01T03:48:41;-5.20;99.90
20740;DHT22;10530;49.968;19.844;2023-03-01T03:53:44;-5.20;99.90
20740;DHT22;10530;49.968;19.844;2023-03-01T03:58:47;-5.30;99.90
20740;DHT22;10530;49.968;19.844;2023-03-01T04:03:49;-5.20;99.90
20740;DHT22;10530;49.968;19.844;2023-03-01T04:08:56;-5.30;99.90
20740;DHT22;10530;49.968;19.844;2023-03-01T04:14:01;-5.20;99.90
20740;DHT22;10530;49.968;19.844;2023-03-01T04:19:04;-5.20;99.90
20740;DHT22;10530;49.968;19.844;2023-03-01T04:24:08;-5.10;99.90
20740;DHT22;10530;49.968;19.844;2023-03-01T04:29:11;-5.10;99.90
20740;DHT22;10530;49.968;19.844;2023-03-01T04:34:14;-5.20;99.90
20740;DHT22;10530;49.968;19.844;2023-03-01T04:39:17;-5.40;99.90
20740;DHT22;10530;49.968;19.844;2023-03-01T04:44:19;-5.50;99.90
20740;DHT22;10530;49.968;19.844;2023-03-01T04:49:22;-5.50;99.90
20740;DHT22;10530;49.968;19.844;2023-03-01T04:54:25;-5.70;99.90
20740;DHT22;10530;49.968;19.844;2023-03-01T04:59:28;-5.60;99.90
20740;DHT22;10530;49.968;19.844;2023-03-01T05:04:31;-5.70;99.90
20740;DHT22;10530;49.968;19.844;2023-03-01T05:09:34;-5.70;99.90
20740;DHT22;10530;49.968;19.844;2023-03-01T05:14:36;-5.70;99.90
20740;DHT22;10530;49.968;19.844;2023-03-01T05:19:40;-5.60;99.90
20740;DHT22;10530;49.968;19.844;2023-03-01T05:24:44;-5.60;99.90
20740;DHT22;10530;49.968;19.844;2023-03-01T05:29:49;-5.70;99.90
20740;DHT22;10530;49.968;19.844;2023-03-01T05:34:51;-5.60;99.90
20740;DHT22;10530;49.968;19.844;2023-03-01T05:39:54;-5.70;99.90
20740;DHT22;10530;49.968;19.844;2023-03-01T05:44:56;-5.60;99.90
20740;DHT22;10530;49.968;19.844;2023-03-01T05:49:59;-5.60;99.90
20740;DHT22;10530;49.968;19.844;2023-03-01T05:55:02;-5.60;99.90
20740;DHT22;10530;49.968;19.844;2023-03-01T06:00:05;-5.40;99.90
20740;DHT22;10530;49.968;19.844;2023-03-01T06:05:14;-5.20;99.90
20740;DHT22;10530;49.968;19.844;2023-03-01T06:10:19;-5.10;99.90
20740;DHT22;10530;49.968;19.844;2023-03-01T06:15:22;-4.70;99.90
20740;DHT22;10530;49.968;19.844;2023-03-01T06:20:27;-4.60;99.90
20740;DHT22;10530;49.968;19.844;2023-03-01T06:25:30;-4.40;99.90
20740;DHT22;10530;49.968;19.844;2023-03-01T06:30:33;-2.80;99.90
20740;DHT22;10530;49.968;19.844;2023-03-01T06:41:10;0.60;99.90
20740;DHT22;10530;49.968;19.844;2023-03-01T06:46:13;1.00;99.90
20740;DHT22;10530;49.968;19.844;2023-03-01T06:51:16;2.40;99.90
20740;DHT22;10530;49.968;19.844;2023-03-01T06:56:18;1.40;99.90
20740;DHT22;10530;49.968;19.844;2023-03-01T07:01:21;2.60;99.90
20740;DHT22;10530;49.968;19.844;2023-03-01T07:06:24;4.60;99.90
20740;DHT22;10530;49.968;19.844;2023-03-01T07:11:27;3.80;99.90
20740;DHT22;10530;49.968;19.844;2023-03-01T07:16:30;4.80;99.90
20740;DHT22;10530;49.968;19.844;2023-03-01T07:21:34;5.30;99.40
20740;DHT22;10530;49.968;19.844;2023-03-01T07:26:37;5.50;94.60
20740;DHT22;10530;49.968;19.844;2023-03-01T07:31:39;4.40;99.90
20740;DHT22;10530;49.968;19.844;2023-03-01T07:36:42;4.60;95.70
20740;DHT22;10530;49.968;19.844;2023-03-01T07:41:47;4.00;98.40
20740;DHT22;10530;49.968;19.844;2023-03-01T07:46:55;4.60;94.60
20740;DHT22;10530;49.968;19.844;2023-03-01T07:52:00;4.70;96.70
20740;DHT22;10530;49.968;19.844;2023-03-01T07:57:03;5.90;85.90
20740;DHT22;10530;49.968;19.844;2023-03-01T08:02:06;4.60;95.70
20740;DHT22;10530;49.968;19.844;2023-03-01T08:07:09;5.10;94.10
20740;DHT22;10530;49.968;19.844;2023-03-01T08:12:12;5.90;92.30
20740;DHT22;10530;49.968;19.844;2023-03-01T08:17:14;5.10;92.50
20740;DHT22;10530;49.968;19.844;2023-03-01T08:22:18;4.30;95.40
20740;DHT22;10530;49.968;19.844;2023-03-01T08:27:21;4.70;96.90
20740;DHT22;10530;49.968;19.844;2023-03-01T08:32:25;5.20;94.40
20740;DHT22;10530;49.968;19.844;2023-03-01T08:37:28;4.70;96.80
20740;DHT22;10530;49.968;19.844;2023-03-01T08:42:33;6.50;92.70
20740;DHT22;10530;49.968;19.844;2023-03-01T08:47:36;6.80;89.20
20740;DHT22;10530;49.968;19.844;2023-03-01T08:52:39;8.50;79.70
20740;DHT22;10530;49.968;19.844;2023-03-01T08:57:41;11.10;58.40
20740;DHT22;10530;49.968;19.844;2023-03-01T09:02:44;11.90;49.30
20740;DHT22;10530;49.968;19.844;2023-03-01T09:07:47;12.60;44.10
20740;DHT22;10530;49.968;19.844;2023-03-01T09:12:51;13.00;40.20
20740;DHT22;10530;49.968;19.844;2023-03-01T09:17:54;14.10;34.40
20740;DHT22;10530;49.968;19.844;2023-03-01T09:22:57;13.90;30.60
20740;DHT22;10530;49.968;19.844;2023-03-01T09:28:01;13.60;32.90
20740;DHT22;10530;49.968;19.844;2023-03-01T09:33:03;13.70;30.00
20740;DHT22;10530;49.968;19.844;2023-03-01T09:38:06;12.60;30.50
20740;DHT22;10530;49.968;19.844;2023-03-01T09:48:27;13.60;28.50
20740;DHT22;10530;49.968;19.844;2023-03-01T09:53:32;13.20;28.50
20740;DHT22;10530;49.968;19.844;2023-03-01T10:04:46;14.20;28.10
20740;DHT22;10530;49.968;19.844;2023-03-01T10:09:49;15.80;23.10
20740;DHT22;10530;49.968;19.844;2023-03-01T10:15:05;13.70;22.50
20740;DHT22;10530;49.968;19.844;2023-03-01T10:20:28;14.70;22.30
20740;DHT22;10530;49.968;19.844;2023-03-01T10:30:44;13.80;20.90
20740;DHT22;10530;49.968;19.844;2023-03-01T10:35:47;15.10;20.00
20740;DHT22;10530;49.968;19.844;2023-03-01T10:40:52;15.10;22.10
20740;DHT22;10530;49.968;19.844;2023-03-01T10:45:55;15.30;21.30
20740;DHT22;10530;49.968;19.844;2023-03-01T10:56:11;15.80;21.60
20740;DHT22;10530;49.968;19.844;2023-03-01T11:06:22;15.90;19.00
20740;DHT22;10530;49.968;19.844;2023-03-01T11:11:34;12.70;20.20
20740;DHT22;10530;49.968;19.844;2023-03-01T11:16:39;14.10;21.20
20740;DHT22;10530;49.968;19.844;2023-03-01T11:22:13;13.40;19.60
20740;DHT22;10530;49.968;19.844;2023-03-01T11:27:18;13.90;20.70
20740;DHT22;10530;49.968;19.844;2023-03-01T11:32:25;13.20;20.90
20740;DHT22;10530;49.968;19.844;2023-03-01T11:37:36;13.70;17.30
20740;DHT22;10530;49.968;19.844;2023-03-01T11:53:31;13.90;16.00
20740;DHT22;10530;49.968;19.844;2023-03-01T12:09:57;12.70;19.30
20740;DHT22;10530;49.968;19.844;2023-03-01T12:14:42;12.60;18.60
20740;DHT22;10530;49.968;19.844;2023-03-01T12:41:31;13.20;18.50
20740;DHT22;10530;49.968;19.844;2023-03-01T12:57:47;11.30;19.70
20740;DHT22;10530;49.968;19.844;2023-03-01T13:08:10;13.80;19.80
20740;DHT22;10530;49.968;19.844;2023-03-01T13:13:23;12.70;16.10
20740;DHT22;10530;49.968;19.844;2023-03-01T13:18:30;11.80;17.90
20740;DHT22;10530;49.968;19.844;2023-03-01T13:23:37;12.50;16.50
20740;DHT22;10530;49.968;19.844;2023-03-01T13:28:53;12.80;14.30
20740;DHT22;10530;49.968;19.844;2023-03-01T13:33:59;12.90;17.90
20740;DHT22;10530;49.968;19.844;2023-03-01T13:39:27;13.10;15.70
20740;DHT22;10530;49.968;19.844;2023-03-01T13:44:33;11.70;15.70
20740;DHT22;10530;49.968;19.844;2023-03-01T13:50:02;11.90;17.50
20740;DHT22;10530;49.968;19.844;2023-03-01T13:55:33;12.70;14.50
20740;DHT22;10530;49.968;19.844;2023-03-01T14:00:39;12.10;13.10
20740;DHT22;10530;49.968;19.844;2023-03-01T14:05:58;13.10;14.90
20740;DHT22;10530;49.968;19.844;2023-03-01T14:22:41;10.10;12.40
20740;DHT22;10530;49.968;19.844;2023-03-01T14:27:38;11.30;25.10
20740;DHT22;10530;49.968;19.844;2023-03-01T14:32:58;11.20;15.80
20740;DHT22;10530;49.968;19.844;2023-03-01T14:38:01;11.50;15.50
20740;DHT22;10530;49.968;19.844;2023-03-01T14:43:12;10.10;16.10
20740;DHT22;10530;49.968;19.844;2023-03-01T14:48:20;10.30;15.90
20740;DHT22;10530;49.968;19.844;2023-03-01T14:53:26;10.80;24.00
20740;DHT22;10530;49.968;19.844;2023-03-01T14:58:32;10.60;15.60
20740;DHT22;10530;49.968;19.844;2023-03-01T15:03:47;10.20;16.30
20740;DHT22;10530;49.968;19.844;2023-03-01T15:08:52;9.50;19.10
20740;DHT22;10530;49.968;19.844;2023-03-01T15:13:56;8.60;18.90
20740;DHT22;10530;49.968;19.844;2023-03-01T15:19:01;8.80;18.90
20740;DHT22;10530;49.968;19.844;2023-03-01T15:29:18;7.70;19.90
20740;DHT22;10530;49.968;19.844;2023-03-01T15:34:30;7.20;21.10
20740;DHT22;10530;49.968;19.844;2023-03-01T15:39:39;7.00;21.90
20740;DHT22;10530;49.968;19.844;2023-03-01T15:44:45;6.50;22.40
20740;DHT22;10530;49.968;19.844;2023-03-01T15:49:52;6.20;22.50
20740;DHT22;10530;49.968;19.844;2023-03-01T15:54:59;5.90;23.40
20740;DHT22;10530;49.968;19.844;2023-03-01T16:00:04;5.70;23.30
20740;DHT22;10530;49.968;19.844;2023-03-01T16:05:23;5.50;25.40
20740;DHT22;10530;49.968;19.844;2023-03-01T16:10:26;5.20;27.10
20740;DHT22;10530;49.968;19.844;2023-03-01T16:15:32;5.00;28.30
20740;DHT22;10530;49.968;19.844;2023-03-01T16:20:37;4.70;29.30
20740;DHT22;10530;49.968;19.844;2023-03-01T16:25:39;4.50;30.40
20740;DHT22;10530;49.968;19.844;2023-03-01T16:30:46;4.40;30.00
20740;DHT22;10530;49.968;19.844;2023-03-01T16:35:50;4.00;32.20
20740;DHT22;10530;49.968;19.844;2023-03-01T16:40:53;3.70;34.00
20740;DHT22;10530;49.968;19.844;2023-03-01T16:45:57;3.50;34.20
20740;DHT22;10530;49.968;19.844;2023-03-01T16:51:01;3.40;35.60
20740;DHT22;10530;49.968;19.844;2023-03-01T16:56:09;3.20;36.90
20740;DHT22;10530;49.968;19.844;2023-03-01T17:01:18;3.10;38.70
20740;DHT22;10530;49.968;19.844;2023-03-01T17:06:21;2.90;40.80
20740;DHT22;10530;49.968;19.844;2023-03-01T17:11:25;2.80;43.20
20740;DHT22;10530;49.968;19.844;2023-03-01T17:16:28;2.50;45.70
20740;DHT22;10530;49.968;19.844;2023-03-01T17:21:31;2.40;48.10
20740;DHT22;10530;49.968;19.844;2023-03-01T17:26:34;2.20;51.20
20740;DHT22;10530;49.968;19.844;2023-03-01T17:31:37;2.00;55.00
20740;DHT22;10530;49.968;19.844;2023-03-01T17:36:40;1.80;57.30
20740;DHT22;10530;49.968;19.844;2023-03-01T17:41:46;1.80;59.70
20740;DHT22;10530;49.968;19.844;2023-03-01T17:46:49;1.80;62.30
20740;DHT22;10530;49.968;19.844;2023-03-01T17:51:51;1.80;63.20
20740;DHT22;10530;49.968;19.844;2023-03-01T17:56:54;1.70;65.00
20740;DHT22;10530;49.968;19.844;2023-03-01T18:01:58;1.70;66.60
20740;DHT22;10530;49.968;19.844;2023-03-01T18:07:03;1.60;68.60
20740;DHT22;10530;49.968;19.844;2023-03-01T18:12:06;1.60;68.90
20740;DHT22;10530;49.968;19.844;2023-03-01T18:17:09;1.70;68.70
20740;DHT22;10530;49.968;19.844;2023-03-01T18:22:14;1.80;68.20
20740;DHT22;10530;49.968;19.844;2023-03-01T18:27:17;1.70;67.40
20740;DHT22;10530;49.968;19.844;2023-03-01T18:32:20;1.70;67.20
20740;DHT22;10530;49.968;19.844;2023-03-01T18:37:23;1.70;67.60
20740;DHT22;10530;49.968;19.844;2023-03-01T18:42:26;1.60;68.00
20740;DHT22;10530;49.968;19.844;2023-03-01T18:47:29;1.40;69.10
20740;DHT22;10530;49.968;19.844;2023-03-01T18:52:32;1.20;70.50
20740;DHT22;10530;49.968;19.844;2023-03-01T18:57:35;1.10;69.60
20740;DHT22;10530;49.968;19.844;2023-03-01T19:02:38;1.00;70.10
20740;DHT22;10530;49.968;19.844;2023-03-01T19:07:42;1.00;70.20
20740;DHT22;10530;49.968;19.844;2023-03-01T19:12:45;0.80;71.50
20740;DHT22;10530;49.968;19.844;2023-03-01T19:17:48;0.50;77.00
20740;DHT22;10530;49.968;19.844;2023-03-01T19:22:51;0.40;75.40
20740;DHT22;10530;49.968;19.844;2023-03-01T19:27:54;0.30;77.60
20740;DHT22;10530;49.968;19.844;2023-03-01T19:32:57;0.20;79.20
20740;DHT22;10530;49.968;19.844;2023-03-01T19:38:00;0.10;80.10
20740;DHT22;10530;49.968;19.844;2023-03-01T19:43:02;0.30;76.80
20740;DHT22;10530;49.968;19.844;2023-03-01T19:48:05;0.10;82.70
20740;DHT22;10530;49.968;19.844;2023-03-01T19:53:08;-0.30;89.80
20740;DHT22;10530;49.968;19.844;2023-03-01T19:58:11;-0.60;95.20
20740;DHT22;10530;49.968;19.844;2023-03-01T20:03:14;-1.00;99.90
20740;DHT22;10530;49.968;19.844;2023-03-01T20:08:17;-1.10;99.90
20740;DHT22;10530;49.968;19.844;2023-03-01T20:13:19;-1.30;99.90
20740;DHT22;10530;49.968;19.844;2023-03-01T20:18:22;-1.30;99.90
20740;DHT22;10530;49.968;19.844;2023-03-01T20:23:26;-1.30;99.90
20740;DHT22;10530;49.968;19.844;2023-03-01T20:28:29;-1.30;99.90
20740;DHT22;10530;49.968;19.844;2023-03-01T20:33:33;-1.50;99.90
20740;DHT22;10530;49.968;19.844;2023-03-01T20:38:36;-1.60;99.90
20740;DHT22;10530;49.968;19.844;2023-03-01T20:43:42;-1.70;99.90
20740;DHT22;10530;49.968;19.844;2023-03-01T20:48:45;-1.80;99.90
20740;DHT22;10530;49.968;19.844;2023-03-01T20:53:47;-1.90;99.90
20740;DHT22;10530;49.968;19.844;2023-03-01T20:58:50;-1.90;99.90
20740;DHT22;10530;49.968;19.844;2023-03-01T21:03:53;-2.10;99.90
20740;DHT22;10530;49.968;19.844;2023-03-01T21:15:50;-2.20;99.90
20740;DHT22;10530;49.968;19.844;2023-03-01T21:20:53;-2.40;99.90
20740;DHT22;10530;49.968;19.844;2023-03-01T21:26:04;-2.60;99.90
20740;DHT22;10530;49.968;19.844;2023-03-01T21:31:17;-2.60;99.90
20740;DHT22;10530;49.968;19.844;2023-03-01T21:36:21;-2.70;99.90
20740;DHT22;10530;49.968;19.844;2023-03-01T21:41:27;-2.70;99.90
20740;DHT22;10530;49.968;19.844;2023-03-01T21:46:32;-2.80;99.90
20740;DHT22;10530;49.968;19.844;2023-03-01T21:51:36;-2.90;99.90
20740;DHT22;10530;49.968;19.844;2023-03-01T21:56:39;-2.90;99.90
20740;DHT22;10530;49.968;19.844;2023-03-01T22:01:42;-2.80;99.90
20740;DHT22;10530;49.968;19.844;2023-03-01T22:06:45;-2.90;99.90
20740;DHT22;10530;49.968;19.844;2023-03-01T22:11:50;-2.90;99.90
20740;DHT22;10530;49.968;19.844;2023-03-01T22:16:56;-3.00;99.90
20740;DHT22;10530;49.968;19.844;2023-03-01T22:21:59;-2.90;99.90
20740;DHT22;10530;49.968;19.844;2023-03-01T22:27:02;-3.00;99.90
20740;DHT22;10530;49.968;19.844;2023-03-01T22:32:05;-3.00;99.90
20740;DHT22;10530;49.968;19.844;2023-03-01T22:37:08;-3.10;99.90
20740;DHT22;10530;49.968;19.844;2023-03-01T22:42:10;-3.20;99.90
20740;DHT22;10530;49.968;19.844;2023-03-01T22:47:13;-3.30;99.90
20740;DHT22;10530;49.968;19.844;2023-03-01T22:52:16;-3.20;99.90
20740;DHT22;10530;49.968;19.844;2023-03-01T22:57:19;-3.20;99.90
20740;DHT22;10530;49.968;19.844;2023-03-01T23:02:22;-3.20;99.90
20740;DHT22;10530;49.968;19.844;2023-03-01T23:07:26;-3.20;99.90
20740;DHT22;10530;49.968;19.844;2023-03-01T23:12:30;-3.10;99.90
20740;DHT22;10530;49.968;19.844;2023-03-01T23:17:33;-3.10;99.90
20740;DHT22;10530;49.968;19.844;2023-03-01T23:22:36;-3.20;99.90
20740;DHT22;10530;49.968;19.844;2023-03-01T23:27:40;-3.50;99.90
20740;DHT22;10530;49.968;19.844;2023-03-01T23:32:42;-3.50;99.90
20740;DHT22;10530;49.968;19.844;2023-03-01T23:37:45;-3.60;99.90
20740;DHT22;10530;49.968;19.844;2023-03-01T23:42:48;-3.70;99.90
20740;DHT22;10530;49.968;19.844;2023-03-01T23:47:50;-3.80;99.90
20740;DHT22;10530;49.968;19.844;2023-03-01T23:52:53;-3.80;99.90
20740;DHT22;10530;49.968;19.844;2023-03-01T23:57:56;-4.00;99.90
